createdAt,value
2022-09-12T00:02:18.486Z,101415.00
2022-09-12T00:04:45.315Z,101417.00
2022-09-12T00:07:12.134Z,101426.00
2022-09-12T00:09:39.265Z,101419.00
2022-09-12T00:12:06.177Z,101418.00
2022-09-12T00:14:35.583Z,101417.00
2022-09-12T00:17:02.538Z,101412.00
2022-09-12T00:19:30.081Z,101408.00
2022-09-12T00:21:57.025Z,101412.00
2022-09-12T00:24:23.916Z,101411.00
2022-09-12T00:26:50.822Z,101404.00
2022-09-12T00:29:19.481Z,101406.00
2022-09-12T00:31:46.981Z,101394.00
2022-09-12T00:34:14.383Z,101400.00
2022-09-12T00:36:41.435Z,101405.00
2022-09-12T00:39:09.198Z,101404.00
2022-09-12T00:41:38.991Z,101404.00
2022-09-12T00:44:11.974Z,101402.00
2022-09-12T00:46:41.534Z,101402.00
2022-09-12T00:49:21.713Z,101403.00
2022-09-12T00:51:52.485Z,101414.00
2022-09-12T00:54:22.410Z,101409.00
2022-09-12T00:56:50.638Z,101410.00
2022-09-12T00:59:25.653Z,101409.00
2022-09-12T01:01:52.992Z,101411.00
2022-09-12T01:04:22.136Z,101402.00
2022-09-12T01:06:49.973Z,101392.00
2022-09-12T01:09:19.202Z,101401.00
2022-09-12T01:11:47.085Z,101394.00
2022-09-12T01:14:15.421Z,101387.00
2022-09-12T01:16:42.489Z,101382.00
2022-09-12T01:19:35.249Z,101385.00
2022-09-12T01:22:40.650Z,101386.00
2022-09-12T01:25:19.402Z,101386.00
2022-09-12T01:27:55.475Z,101379.00
2022-09-12T01:30:53.176Z,101389.00
2022-09-12T01:34:02.878Z,101376.00
2022-09-12T01:37:01.036Z,101379.00
2022-09-12T01:39:47.600Z,101390.00
2022-09-12T01:42:26.040Z,101386.00
2022-09-12T01:45:03.418Z,101387.00
2022-09-12T01:47:53.863Z,101383.00
2022-09-12T01:50:28.412Z,101384.00
2022-09-12T01:53:28.897Z,101374.00
2022-09-12T01:56:15.344Z,101382.00
2022-09-12T01:58:52.179Z,101377.00
2022-09-12T02:01:24.668Z,101365.00
2022-09-12T02:04:21.012Z,101356.00
2022-09-12T02:07:01.745Z,101344.00
2022-09-12T02:09:36.459Z,101350.00
2022-09-12T02:12:06.112Z,101345.00
2022-09-12T02:14:37.739Z,101345.00
2022-09-12T02:17:16.574Z,101347.00
2022-09-12T02:19:47.252Z,101342.00
2022-09-12T02:22:17.151Z,101339.00
2022-09-12T02:24:46.859Z,101339.00
2022-09-12T02:27:39.524Z,101336.00
2022-09-12T02:30:08.606Z,101342.00
2022-09-12T02:32:46.727Z,101346.00
2022-09-12T02:35:38.179Z,101337.00
2022-09-12T02:38:22.118Z,101342.00
2022-09-12T02:40:48.951Z,101342.00
2022-09-12T02:43:15.863Z,101339.00
2022-09-12T02:45:42.751Z,101339.00
2022-09-12T02:48:16.566Z,101326.00
2022-09-12T02:50:43.564Z,101324.00
2022-09-12T02:53:10.612Z,101332.00
2022-09-12T02:55:39.131Z,101328.00
2022-09-12T02:58:10.925Z,101330.00
2022-09-12T03:01:12.602Z,101327.00
2022-09-12T03:03:58.140Z,101324.00
2022-09-12T03:06:37.856Z,101340.00
2022-09-12T03:09:10.960Z,101337.00
2022-09-12T03:11:49.937Z,101329.00
2022-09-12T03:14:38.229Z,101340.00
2022-09-12T03:17:13.572Z,101332.00
2022-09-12T03:19:43.328Z,101339.00
2022-09-12T03:22:27.512Z,101332.00
2022-09-12T03:25:00.428Z,101333.00
2022-09-12T03:27:39.272Z,101334.00
2022-09-12T03:30:06.862Z,101325.00
2022-09-12T03:32:40.918Z,101329.00
2022-09-12T03:35:08.119Z,101326.00
2022-09-12T03:37:34.897Z,101330.00
2022-09-12T03:40:02.441Z,101329.00
2022-09-12T03:42:29.260Z,101317.00
2022-09-12T03:44:56.148Z,101325.00
2022-09-12T03:47:22.909Z,101323.00
2022-09-12T03:49:49.809Z,101318.00
2022-09-12T03:52:16.585Z,101332.00
2022-09-12T03:54:43.418Z,101321.00
2022-09-12T03:57:10.598Z,101332.00
2022-09-12T03:59:37.929Z,101328.00
2022-09-12T04:02:05.018Z,101326.00
2022-09-12T04:04:31.907Z,101339.00
2022-09-12T04:06:58.792Z,101340.00
2022-09-12T04:09:25.742Z,101338.00
2022-09-12T04:11:52.480Z,101346.00
2022-09-12T04:14:19.239Z,101329.00
2022-09-12T04:16:46.071Z,101345.00
2022-09-12T04:19:12.861Z,101330.00
2022-09-12T04:21:40.081Z,101326.00
2022-09-12T04:24:06.953Z,101336.00
2022-09-12T04:26:33.789Z,101334.00
2022-09-12T04:29:00.695Z,101328.00
2022-09-12T04:31:27.498Z,101316.00
2022-09-12T04:33:59.042Z,101317.00
2022-09-12T04:36:26.936Z,101310.00
2022-09-12T04:38:53.808Z,101315.00
2022-09-12T04:41:22.597Z,101319.00
2022-09-12T04:43:56.266Z,101314.00
2022-09-12T04:46:35.731Z,101321.00
2022-09-12T04:49:03.004Z,101319.00
2022-09-12T04:51:33.726Z,101321.00
2022-09-12T04:54:06.209Z,101321.00
2022-09-12T04:56:34.304Z,101321.00
2022-09-12T04:59:01.433Z,101323.00
2022-09-12T05:01:30.224Z,101312.00
2022-09-12T05:03:58.731Z,101313.00
2022-09-12T05:06:34.473Z,101310.00
2022-09-12T05:09:02.167Z,101318.00
2022-09-12T05:11:59.648Z,101322.00
2022-09-12T05:14:18.577Z,101313.00
2022-09-12T05:16:49.179Z,101318.00
2022-09-12T05:19:16.340Z,101325.00
2022-09-12T05:21:43.223Z,101323.00
2022-09-12T05:24:10.551Z,101327.00
2022-09-12T05:26:37.359Z,101321.00
2022-09-12T05:29:04.400Z,101306.00
2022-09-12T05:31:31.150Z,101316.00
2022-09-12T05:33:58.082Z,101319.00
2022-09-12T05:36:29.551Z,101306.00
2022-09-12T05:38:56.652Z,101304.00
2022-09-12T05:41:25.813Z,101304.00
2022-09-12T05:43:54.744Z,101306.00
2022-09-12T05:46:25.219Z,101306.00
2022-09-12T05:48:56.147Z,101302.00
2022-09-12T05:51:26.639Z,101308.00
2022-09-12T05:53:58.549Z,101301.00
2022-09-12T05:56:27.542Z,101302.00
2022-09-12T05:59:02.597Z,101309.00
2022-09-12T06:01:31.035Z,101306.00
2022-09-12T06:04:02.785Z,101308.00
2022-09-12T06:06:31.027Z,101307.00
2022-09-12T06:09:01.485Z,101315.00
2022-09-12T06:11:31.014Z,101320.00
2022-09-12T06:13:58.889Z,101317.00
2022-09-12T06:16:28.182Z,101318.00
2022-09-12T06:18:56.684Z,101316.00
2022-09-12T06:21:24.828Z,101322.00
2022-09-12T06:23:51.598Z,101315.00
2022-09-12T06:26:21.613Z,101323.00
2022-09-12T06:28:48.813Z,101328.00
2022-09-12T06:31:31.356Z,101312.00
2022-09-12T06:34:00.951Z,101307.00
2022-09-12T06:36:33.427Z,101306.00
2022-09-12T06:39:15.082Z,101314.00
2022-09-12T06:41:44.231Z,101311.00
2022-09-12T06:44:16.870Z,101306.00
2022-09-12T06:46:44.567Z,101308.00
2022-09-12T06:49:12.515Z,101305.00
2022-09-12T06:51:41.815Z,101310.00
2022-09-12T06:54:09.073Z,101310.00
2022-09-12T06:56:35.963Z,101305.00
2022-09-12T06:59:02.798Z,101306.00
2022-09-12T07:01:31.518Z,101303.00
2022-09-12T07:04:03.084Z,101308.00
2022-09-12T07:06:41.097Z,101314.00
2022-09-12T07:09:13.620Z,101312.00
2022-09-12T07:11:41.640Z,101305.00
2022-09-12T07:14:09.983Z,101300.00
2022-09-12T07:16:37.097Z,101310.00
2022-09-12T07:19:05.405Z,101307.00
2022-09-12T07:21:32.945Z,101297.00
2022-09-12T07:23:59.789Z,101288.00
2022-09-12T07:26:28.208Z,101288.00
2022-09-12T07:29:03.927Z,101290.00
2022-09-12T07:31:39.888Z,101275.00
2022-09-12T07:34:06.897Z,101278.00
2022-09-12T07:36:34.337Z,101279.00
2022-09-12T07:39:01.689Z,101285.00
2022-09-12T07:41:30.264Z,101281.00
2022-09-12T07:43:59.035Z,101270.00
2022-09-12T07:46:26.797Z,101272.00
2022-09-12T07:48:55.123Z,101278.00
2022-09-12T07:51:23.393Z,101265.00
2022-09-12T07:53:50.560Z,101276.00
2022-09-12T07:56:18.769Z,101267.00
2022-09-12T07:58:45.905Z,101281.00
2022-09-12T08:01:13.995Z,101273.00
2022-09-12T08:03:42.145Z,101294.00
2022-09-12T08:06:20.260Z,101300.00
2022-09-12T08:08:48.393Z,101310.00
2022-09-12T08:11:17.357Z,101313.00
2022-09-12T08:13:44.834Z,101311.00
2022-09-12T08:16:21.819Z,101308.00
2022-09-12T08:18:49.527Z,101321.00
2022-09-12T08:21:18.935Z,101325.00
2022-09-12T08:23:46.742Z,101310.00
2022-09-12T08:26:13.949Z,101319.00
2022-09-12T08:28:45.572Z,101323.00
2022-09-12T08:31:15.454Z,101331.00
2022-09-12T08:33:42.503Z,101341.00
2022-09-12T08:36:22.532Z,101350.00
2022-09-12T08:38:51.330Z,101369.00
2022-09-12T08:41:18.077Z,101371.00
2022-09-12T08:43:56.074Z,101396.00
2022-09-12T08:46:37.490Z,101366.00
2022-09-12T08:49:05.426Z,101376.00
2022-09-12T08:51:34.488Z,101384.00
2022-09-12T08:54:02.580Z,101378.00
2022-09-12T08:56:31.884Z,101383.00
2022-09-12T08:58:59.502Z,101382.00
2022-09-12T09:01:30.178Z,101435.00
2022-09-12T09:04:16.031Z,101400.00
2022-09-12T09:07:28.377Z,101381.00
2022-09-12T09:09:59.145Z,101434.00
2022-09-12T09:12:44.165Z,101422.00
2022-09-12T09:15:35.880Z,101433.00
2022-09-12T09:18:04.194Z,101426.00
2022-09-12T09:20:36.576Z,101380.00
2022-09-12T09:23:07.268Z,101418.00
2022-09-12T09:25:38.891Z,101413.00
2022-09-12T09:28:19.177Z,101402.00
2022-09-12T09:30:47.085Z,101381.00
2022-09-12T09:33:27.973Z,101372.00
2022-09-12T09:36:06.563Z,101393.00
2022-09-12T09:38:35.781Z,101391.00
2022-09-12T09:41:16.733Z,101396.00
2022-09-12T09:43:43.575Z,101416.00
2022-09-12T09:46:11.872Z,101402.00
2022-09-12T09:48:42.922Z,101400.00
2022-09-12T09:51:09.883Z,101382.00
2022-09-12T09:53:49.002Z,101399.00
2022-09-12T09:56:42.824Z,101411.00
2022-09-12T09:59:16.634Z,101368.00
2022-09-12T10:02:06.072Z,101380.00
2022-09-12T10:04:41.709Z,101364.00
2022-09-12T10:07:19.325Z,101357.00
2022-09-12T10:10:03.724Z,101366.00
2022-09-12T10:12:32.677Z,101375.00
2022-09-12T10:15:16.141Z,101360.00
2022-09-12T10:17:44.741Z,101378.00
2022-09-12T10:20:30.403Z,101362.00
2022-09-12T10:23:23.156Z,101361.00
2022-09-12T10:25:55.397Z,101371.00
2022-09-12T10:28:28.699Z,101370.00
2022-09-12T10:30:56.207Z,101351.00
2022-09-12T10:33:25.389Z,101385.00
2022-09-12T10:35:53.712Z,101379.00
2022-09-12T10:38:28.598Z,101336.00
2022-09-12T10:41:06.704Z,101390.00
2022-09-12T10:43:33.627Z,101384.00
2022-09-12T10:46:28.346Z,101386.00
2022-09-12T10:49:23.135Z,101345.00
2022-09-12T10:51:51.360Z,101380.00
2022-09-12T10:54:19.650Z,101362.00
2022-09-12T10:56:57.524Z,101345.00
2022-09-12T10:59:40.298Z,101363.00
2022-09-12T11:02:31.844Z,101381.00
2022-09-12T11:05:22.837Z,101331.00
2022-09-12T11:08:06.231Z,101319.00
2022-09-12T11:11:13.747Z,101310.00
2022-09-12T11:14:07.093Z,101300.00
2022-09-12T11:16:59.129Z,101340.00
2022-09-12T11:19:38.437Z,101328.00
2022-09-12T11:22:50.564Z,101347.00
2022-09-12T11:25:26.099Z,101296.00
2022-09-12T11:28:23.756Z,101285.00
2022-09-12T11:31:27.002Z,101323.00
2022-09-12T11:33:56.869Z,101307.00
2022-09-12T11:37:09.885Z,101310.00
2022-09-12T11:39:40.630Z,101303.00
2022-09-12T11:42:16.959Z,101312.00
2022-09-12T11:44:52.686Z,101308.00
2022-09-12T11:47:22.906Z,101314.00
2022-09-12T11:49:54.154Z,101349.00
2022-09-12T11:52:24.514Z,101327.00
2022-09-12T11:55:06.018Z,101319.00
2022-09-12T11:57:44.412Z,101304.00
2022-09-12T12:00:22.948Z,101306.00
2022-09-12T12:03:13.682Z,101265.00
2022-09-12T12:05:55.563Z,101261.00
2022-09-12T12:08:24.131Z,101285.00
2022-09-12T12:10:59.696Z,101300.00
2022-09-12T12:13:26.528Z,101294.00
2022-09-12T12:16:04.319Z,101255.00
2022-09-12T12:18:39.048Z,101280.00
2022-09-12T12:21:31.713Z,101281.00
2022-09-12T12:24:07.652Z,101290.00
2022-09-12T12:26:40.710Z,101261.00
2022-09-12T12:29:17.475Z,101254.00
2022-09-12T12:31:59.477Z,101247.00
2022-09-12T12:34:40.743Z,101241.00
2022-09-12T12:37:20.108Z,101245.00
2022-09-12T12:39:51.055Z,101244.00
2022-09-12T12:42:36.183Z,101250.00
2022-09-12T12:45:09.254Z,101264.00
2022-09-12T12:47:39.359Z,101255.00
2022-09-12T12:50:32.959Z,101236.00
2022-09-12T12:55:54.949Z,101297.00
2022-09-12T12:58:27.827Z,101268.00
2022-09-12T13:01:25.676Z,101289.00
2022-09-12T13:04:12.873Z,101265.00
2022-09-12T13:06:41.970Z,101273.00
2022-09-12T13:09:26.913Z,101297.00
2022-09-12T13:12:06.529Z,101270.00
2022-09-12T13:14:56.443Z,101265.00
2022-09-12T13:17:36.190Z,101243.00
2022-09-12T13:20:29.756Z,101239.00
2022-09-12T13:22:57.643Z,101222.00
2022-09-12T13:25:32.520Z,101211.00
2022-09-12T13:28:04.141Z,101220.00
2022-09-12T13:30:37.401Z,101252.00
2022-09-12T13:33:18.101Z,101211.00
2022-09-12T13:36:22.846Z,101260.00
2022-09-12T13:39:21.541Z,101226.00
2022-09-12T13:42:16.377Z,101217.00
2022-09-12T13:44:56.268Z,101183.00
2022-09-12T13:47:29.588Z,101234.00
2022-09-12T13:49:57.374Z,101226.00
2022-09-12T13:52:31.060Z,101197.00
2022-09-12T13:54:58.889Z,101200.00
2022-09-12T13:57:34.738Z,101173.00
2022-09-12T14:00:07.948Z,101184.00
2022-09-12T14:02:39.446Z,101178.00
2022-09-12T14:05:22.055Z,101144.00
2022-09-12T14:07:55.275Z,101145.00
2022-09-12T14:10:24.049Z,101146.00
2022-09-12T14:12:53.741Z,101144.00
2022-09-12T14:15:24.848Z,101168.00
2022-09-12T14:17:54.869Z,101150.00
2022-09-12T14:20:23.433Z,101136.00
2022-09-12T14:22:53.464Z,101132.00
2022-09-12T14:25:23.827Z,101139.00
2022-09-12T14:27:54.016Z,101149.00
2022-09-12T14:30:26.646Z,101096.00
2022-09-12T14:33:05.871Z,101156.00
2022-09-12T14:35:41.367Z,101189.00
2022-09-12T14:38:23.577Z,101170.00
2022-09-12T14:41:01.226Z,101146.00
2022-09-12T14:43:33.455Z,101150.00
2022-09-12T14:46:14.600Z,101130.00
2022-09-12T14:48:49.301Z,101135.00
2022-09-12T14:51:32.360Z,101164.00
2022-09-12T14:54:00.091Z,101150.00
2022-09-12T14:56:45.611Z,101123.00
2022-09-12T14:59:26.892Z,101119.00
2022-09-12T15:02:21.291Z,101131.00
2022-09-12T15:04:50.643Z,101157.00
2022-09-12T15:07:29.876Z,101113.00
2022-09-12T15:10:02.009Z,101141.00
2022-09-12T15:12:29.014Z,101120.00
2022-09-12T15:15:01.380Z,101112.00
2022-09-12T15:17:28.199Z,101132.00
2022-09-12T15:19:55.105Z,101082.00
2022-09-12T15:22:23.929Z,101075.00
2022-09-12T15:24:53.739Z,101065.00
2022-09-12T15:27:20.805Z,101057.00
2022-09-12T15:29:47.762Z,101081.00
2022-09-12T15:32:37.986Z,101095.00
2022-09-12T15:35:21.745Z,101037.00
2022-09-12T15:38:02.767Z,101045.00
2022-09-12T15:40:31.051Z,101074.00
2022-09-12T15:42:59.556Z,101031.00
2022-09-12T15:45:29.031Z,101042.00
2022-09-12T15:47:56.771Z,101014.00
2022-09-12T15:50:24.197Z,101034.00
2022-09-12T15:52:51.017Z,101014.00
2022-09-12T15:55:23.323Z,101012.00
2022-09-12T15:57:50.206Z,100997.00
2022-09-12T16:00:18.337Z,101007.00
2022-09-12T16:02:50.361Z,101005.00
2022-09-12T16:05:23.384Z,101008.00
2022-09-12T16:07:52.937Z,101002.00
2022-09-12T16:10:30.524Z,100984.00
2022-09-12T16:12:57.767Z,100993.00
2022-09-12T16:15:25.616Z,100990.00
2022-09-12T16:17:52.784Z,100995.00
2022-09-12T16:20:20.748Z,100979.00
2022-09-12T16:22:47.699Z,100981.00
2022-09-12T16:25:14.535Z,100970.00
2022-09-12T16:27:41.588Z,100969.00
2022-09-12T16:30:10.462Z,100964.00
2022-09-12T16:32:37.271Z,100957.00
2022-09-12T16:35:04.538Z,100944.00
2022-09-12T16:37:34.474Z,100959.00
2022-09-12T16:40:02.564Z,100957.00
2022-09-12T16:42:30.044Z,100946.00
2022-09-12T16:44:56.882Z,100939.00
2022-09-12T16:47:23.669Z,100935.00
2022-09-12T16:49:51.312Z,100940.00
2022-09-12T16:52:19.273Z,100942.00
2022-09-12T16:54:46.300Z,100949.00
2022-09-12T16:57:13.178Z,100947.00
2022-09-12T16:59:40.358Z,100941.00
2022-09-12T17:02:17.638Z,100927.00
2022-09-12T17:07:59.082Z,100921.00
2022-09-12T17:10:25.948Z,100919.00
2022-09-12T17:13:09.822Z,100932.00
2022-09-12T17:15:38.644Z,100925.00
2022-09-12T17:18:05.435Z,100918.00
2022-09-12T17:20:35.794Z,100912.00
2022-09-12T17:23:06.452Z,100907.00
2022-09-12T17:25:36.054Z,100904.00
2022-09-12T17:28:05.622Z,100905.00
2022-09-12T17:30:35.982Z,100892.00
2022-09-12T17:33:24.172Z,100897.00
2022-09-12T17:35:52.306Z,100905.00
2022-09-12T17:38:24.557Z,100895.00
2022-09-12T17:40:59.617Z,100904.00
2022-09-12T17:43:26.859Z,100892.00
2022-09-12T17:45:57.359Z,100890.00
2022-09-12T17:48:24.373Z,100886.00
2022-09-12T17:50:51.185Z,100888.00
2022-09-12T17:53:17.995Z,100878.00
2022-09-12T17:55:44.806Z,100886.00
2022-09-12T17:58:11.876Z,100886.00
2022-09-12T18:00:57.207Z,100890.00
2022-09-12T18:03:24.419Z,100884.00
2022-09-12T18:05:56.218Z,100886.00
2022-09-12T18:08:24.053Z,100880.00
2022-09-12T18:10:52.245Z,100887.00
2022-09-12T18:13:19.151Z,100879.00
2022-09-12T18:15:45.924Z,100866.00
2022-09-12T18:18:12.738Z,100865.00
2022-09-12T18:20:39.575Z,100843.00
2022-09-12T18:23:06.356Z,100860.00
2022-09-12T18:25:33.112Z,100845.00
2022-09-12T18:27:59.916Z,100848.00
2022-09-12T18:30:45.584Z,100853.00
2022-09-12T18:33:28.474Z,100848.00
2022-09-12T18:35:56.619Z,100849.00
2022-09-12T18:38:23.367Z,100836.00
2022-09-12T18:40:50.409Z,100835.00
2022-09-12T18:43:17.247Z,100827.00
2022-09-12T18:45:43.992Z,100828.00
2022-09-12T18:48:11.032Z,100819.00
2022-09-12T18:50:37.823Z,100821.00
2022-09-12T18:53:04.594Z,100819.00
2022-09-12T18:55:32.659Z,100825.00
2022-09-12T18:57:59.649Z,100821.00
2022-09-12T19:00:26.943Z,100823.00
2022-09-12T19:02:53.816Z,100821.00
2022-09-12T19:05:21.018Z,100818.00
2022-09-12T19:07:47.902Z,100806.00
2022-09-12T19:10:14.724Z,100803.00
2022-09-12T19:12:41.541Z,100806.00
2022-09-12T19:15:09.812Z,100808.00
2022-09-12T19:17:36.802Z,100809.00
2022-09-12T19:20:04.237Z,100813.00
2022-09-12T19:22:31.018Z,100807.00
2022-09-12T19:24:57.766Z,100802.00
2022-09-12T19:27:24.539Z,100813.00
2022-09-12T19:29:51.336Z,100810.00
2022-09-12T19:32:37.787Z,100798.00
2022-09-12T19:35:05.781Z,100777.00
2022-09-12T19:37:32.630Z,100770.00
2022-09-12T19:39:59.419Z,100781.00
2022-09-12T19:42:35.261Z,100775.00
2022-09-12T19:45:02.717Z,100782.00
2022-09-12T19:47:29.688Z,100782.00
2022-09-12T19:49:56.692Z,100784.00
2022-09-12T19:52:26.535Z,100781.00
2022-09-12T19:54:54.114Z,100775.00
2022-09-12T19:57:23.579Z,100773.00
2022-09-12T19:59:53.854Z,100772.00
2022-09-12T20:02:29.091Z,100764.00
2022-09-12T20:04:56.133Z,100764.00
2022-09-12T20:07:23.376Z,100759.00
2022-09-12T20:09:50.296Z,100754.00
2022-09-12T20:12:20.323Z,100739.00
2022-09-12T20:14:47.663Z,100748.00
2022-09-12T20:17:17.234Z,100738.00
2022-09-12T20:19:44.174Z,100743.00
2022-09-12T20:22:10.906Z,100730.00
2022-09-12T20:24:38.041Z,100717.00
2022-09-12T20:27:08.570Z,100714.00
2022-09-12T20:29:35.316Z,100712.00
2022-09-12T20:32:02.064Z,100707.00
2022-09-12T20:34:28.925Z,100719.00
2022-09-12T20:36:55.760Z,100725.00
2022-09-12T20:39:23.249Z,100718.00
2022-09-12T20:41:50.242Z,100725.00
2022-09-12T20:44:17.052Z,100715.00
2022-09-12T20:46:43.948Z,100714.00
2022-09-12T20:49:10.772Z,100713.00
2022-09-12T20:51:37.869Z,100704.00
2022-09-12T20:54:06.603Z,100710.00
2022-09-12T20:56:35.172Z,100701.00
2022-09-12T20:59:02.462Z,100693.00
2022-09-12T21:01:31.260Z,100695.00
2022-09-12T21:03:59.550Z,100682.00
2022-09-12T21:06:26.414Z,100672.00
2022-09-12T21:08:53.416Z,100678.00
2022-09-12T21:11:20.566Z,100672.00
2022-09-12T21:13:47.746Z,100674.00
2022-09-12T21:16:16.813Z,100667.00
2022-09-12T21:18:43.778Z,100676.00
2022-09-12T21:21:12.469Z,100673.00
2022-09-12T21:23:39.756Z,100680.00
2022-09-12T21:26:06.957Z,100671.00
2022-09-12T21:28:33.854Z,100667.00
2022-09-12T21:31:06.660Z,100668.00
2022-09-12T21:33:51.545Z,100667.00
2022-09-12T21:36:19.530Z,100663.00
2022-09-12T21:38:46.367Z,100657.00
2022-09-12T21:41:15.517Z,100647.00
2022-09-12T21:43:43.267Z,100652.00
2022-09-12T21:46:10.609Z,100650.00
2022-09-12T21:48:37.560Z,100646.00
2022-09-12T21:51:04.774Z,100657.00
2022-09-12T21:53:31.949Z,100653.00
2022-09-12T21:56:03.808Z,100644.00
2022-09-12T21:58:31.039Z,100634.00
2022-09-12T22:00:57.870Z,100644.00
2022-09-12T22:03:26.055Z,100653.00
2022-09-12T22:06:00.507Z,100641.00
2022-09-12T22:08:28.210Z,100641.00
2022-09-12T22:11:03.062Z,100640.00
2022-09-12T22:13:33.723Z,100634.00
2022-09-12T22:16:03.853Z,100629.00
2022-09-12T22:18:38.064Z,100617.00
2022-09-12T22:21:12.444Z,100614.00
2022-09-12T22:23:57.776Z,100628.00
2022-09-12T22:26:24.758Z,100626.00
2022-09-12T22:28:51.593Z,100625.00
2022-09-12T22:31:18.875Z,100615.00
2022-09-12T22:33:46.058Z,100622.00
2022-09-12T22:36:13.150Z,100615.00
2022-09-12T22:38:40.434Z,100621.00
2022-09-12T22:41:09.261Z,100610.00
2022-09-12T22:43:36.599Z,100610.00
2022-09-12T22:46:12.164Z,100602.00
2022-09-12T22:48:39.166Z,100610.00
2022-09-12T22:51:06.775Z,100604.00
2022-09-12T22:53:34.327Z,100594.00
2022-09-12T22:56:01.470Z,100574.00
2022-09-12T22:58:28.375Z,100591.00
2022-09-12T23:00:55.234Z,100586.00
2022-09-12T23:03:22.128Z,100572.00
2022-09-12T23:05:49.049Z,100576.00
2022-09-12T23:08:17.673Z,100577.00
2022-09-12T23:10:44.443Z,100570.00
2022-09-12T23:13:11.661Z,100566.00
2022-09-12T23:15:38.582Z,100537.00
2022-09-12T23:18:05.410Z,100528.00
2022-09-12T23:20:32.231Z,100528.00
2022-09-12T23:22:59.004Z,100528.00
2022-09-12T23:25:26.321Z,100521.00
2022-09-12T23:27:53.484Z,100532.00
2022-09-12T23:30:21.439Z,100526.00
2022-09-12T23:32:49.277Z,100537.00
2022-09-12T23:35:19.813Z,100533.00
2022-09-12T23:37:47.543Z,100532.00
2022-09-12T23:40:14.501Z,100531.00
2022-09-12T23:42:41.464Z,100523.00
2022-09-12T23:45:08.711Z,100513.00
2022-09-12T23:47:35.640Z,100528.00
2022-09-12T23:50:02.372Z,100515.00
2022-09-12T23:52:29.618Z,100509.00
2022-09-12T23:54:56.400Z,100515.00
2022-09-12T23:57:23.354Z,100516.00
2022-09-12T23:59:50.108Z,100514.00
